ADDS METAR Data INFO
IDs: Format: Raw Decoded Include TAF

Data at: 1237 UTC 25 Jul 2017

KBMQ 251153Z AUTO 17004KT 9SM CLR 24/22 A3011 RMK AO2 SLP176 70086 T02390217 10256 20239 53013
KBMQ 251053Z AUTO 17004KT 9SM CLR 24/22 A3009 RMK AO2 SLP171 T02390222
KBMQ 250953Z AUTO 17004KT 9SM CLR 24/22 A3007 RMK AO2 SLP167 T02390222
KBMQ 250853Z AUTO 16004KT 9SM CLR 24/22 A3007 RMK AO2 SLP164 T02440217 53003
KBMQ 250753Z AUTO 16006KT 10SM CLR 24/21 A3006 RMK AO2 SLP163 T02440211
KBMQ 250653Z AUTO 16005KT 10SM CLR 25/21 A3006 RMK AO2 SLP158 T02500206
KBMQ 250553Z AUTO 16003KT 10SM CLR 25/20 A3006 RMK AO2 SLP158 T02500200 10289 20250 403330222 51018
KBMQ 250453Z AUTO VRB03KT 10SM CLR 25/20 A3004 RMK AO2 SLP153 T02500200
KBMQ 250353Z AUTO 11003KT 10SM CLR 25/20 A3003 RMK AO2 SLP151 T02500200
KBMQ 250253Z AUTO 15003KT 10SM CLR 26/20 A3000 RMK AO2 SLP141 T02610200 53006
KBMQ 250153Z AUTO 00000KT 10SM CLR 27/21 A2999 RMK AO2 SLP136 T02670206
KBMQ 250053Z AUTO VRB03KT 10SM CLR 28/20 A2998 RMK AO2 SLP134 T02830200
KBMQ 242353Z AUTO 11003KT 10SM CLR 28/21 A2998 RMK AO2 SLP135 60086 T02830206 10333 20222 57008
KBMQ 242253Z AUTO 08005KT 10SM CLR 27/21 A2999 RMK AO2 SLP139 T02670211 $
KBMQ 242153Z AUTO 14004KT 10SM FEW043 FEW050 24/22 A3000 RMK AO2 RAE38 SLP142 P0001 T02440217 $
KBMQ 242135Z AUTO 11007KT 10SM -RA SCT044 BKN050 BKN070 24/22 A3000 RMK AO2 LTG DSNT SE P0001 T02390217 $
KBMQ 242120Z AUTO 11010G15KT 9SM VCTS -RA FEW070 BKN090 OVC110 24/21 A3000 RMK AO2 LTG DSNT E-SW P0001 T02390211 $
KBMQ 242110Z AUTO 10007KT 8SM -RA FEW070 SCT090 OVC110 24/22 A3001 RMK AO2 LTG DSNT E-S P0001 T02440217 $
KBMQ 242053Z AUTO 00000KT 10SM VCTS -RA FEW070 BKN095 BKN120 24/22 A3001 RMK AO2 LTG DSNT E-S TSE23 SLP145 P0018 60085 T02440222 $
KBMQ 242029Z AUTO 00000KT 9SM VCTS -RA FEW060 SCT120 24/22 A2999 RMK AO2 LTG DSNT ALQDS TSE23 P0018 T02390217 $
KBMQ 242022Z AUTO 13003KT 6SM -TSRA BR SCT043 SCT070 BKN120 23/21 A3000 RMK AO2 LTG DSNT ALQDS PRESFR P0018 T02330211 $
KBMQ 242011Z AUTO 00000KT 2SM +TSRA BR BKN036 BKN065 OVC110 24/22 A3002 RMK AO2 LTG DSNT ALQDS P0017 T02390217 $
KBMQ 242004Z AUTO 18005KT 1SM +TSRA OVC031 23/21 A3002 RMK AO2 LTG DSNT ALQDS PRESFR P0015 T02330206 $
KBMQ 241953Z AUTO 03004G22KT 1/2SM +TSRA FG 22/21 A3004 RMK AO2 PK WND 36032/1935 LTG DSNT ALQDS RAB22B37 SLP157 P0067 T02220206 $
KBMQ 241944Z AUTO 35015G32KT 1/2SM +TSRA FG 23/21 A3005 RMK AO2 PK WND 36032/1935 LTG DSNT ALQDS RAB22B37 P0039 T02280206 $
KBMQ 241935Z AUTO 35021G32KT TS 23/ A3004 RMK AO2 PK WND 36032/1935 LTG DSNT ALQDS RAB22 P0003 T0228 PWINO $
KBMQ 241853Z AUTO VRB05KT 8SM TS SCT039 32/21 A3001 RMK AO2 LTG DSNT NW-NE TSB39 SLP143 T03170211
KBMQ 241845Z AUTO 15007KT 9SM TS BKN038 33/21 A3001 RMK AO2 LTG DSNT N AND NE TSB39 T03280206
KBMQ 241830Z AUTO 17003KT 9SM VCTS SCT038 33/21 A3003 RMK AO2 LTG DSNT N T03280211
KBMQ 241753Z AUTO VRB05KT 9SM FEW032 32/22 A3003 RMK AO2 SLP148 T03220217 10328 20233 58005
KBMQ 241653Z AUTO 18007KT 9SM CLR 31/22 A3003 RMK AO2 SLP150 T03060222
KBMQ 241553Z AUTO VRB06KT 9SM CLR 28/22 A3004 RMK AO2 SLP154 T02780217
KBMQ 241453Z AUTO 19006KT 8SM FEW010 SCT018 SCT026 26/22 A3004 RMK AO2 SLP155 T02610222 50011
KBMQ 241445Z AUTO 19006KT 8SM FEW009 BKN018 BKN026 26/22 A3005 RMK AO2 T02610222
KBMQ 241403Z AUTO 17005KT 8SM OVC016 25/22 A3005 RMK AO2 T02500222
KBMQ 241353Z AUTO 17006KT 8SM OVC014 25/22 A3004 RMK AO2 SLP156 T02500217
KBMQ 241309Z AUTO 00000KT 10SM BKN010 OVC027 24/20 A3003 RMK AO2 T02390200
KBMQ 241300Z AUTO 00000KT 10SM SCT010 BKN027 24/20 A3003 RMK AO2 T02390200
KBMQ 241253Z AUTO 00000KT 10SM SCT027 24/20 A3002 RMK AO2 SLP148 T02390200
KBMQ 241153Z AUTO 00000KT 10SM CLR 23/19 A3001 RMK AO2 SLP144 T02330189 10239 20228 51008
KBMQ 241053Z AUTO 02003KT 10SM CLR 23/18 A3000 RMK AO2 SLP141 T02330183
KBMQ 240953Z AUTO 01004KT 10SM SCT085 BKN110 23/19 A3000 RMK AO2 SLP141 T02330189
KBMQ 240853Z AUTO 02003KT 10SM CLR 23/19 A2998 RMK AO2 SLP134 T02280189 58002
KBMQ 240753Z AUTO 00000KT 10SM CLR 23/19 A3000 RMK AO2 SLP140 T02280189
KBMQ 240653Z AUTO 00000KT 10SM CLR 23/19 A3000 RMK AO2 SLP138 T02330189
KBMQ 240553Z AUTO 00000KT 10SM CLR 24/19 A2999 RMK AO2 SLP135 T02390189 10272 20233 403560233 51012
KBMQ 240453Z AUTO 17003KT 10SM CLR 24/19 A2999 RMK AO2 SLP134 T02440189
KBMQ 240353Z AUTO 00000KT 10SM CLR 24/19 A2996 RMK AO2 SLP126 T02440189
KBMQ 240253Z AUTO 00000KT 10SM CLR 25/17 A2995 RMK AO2 SLP123 T02500172 53007
KBMQ 240153Z AUTO 25003KT 10SM CLR 26/17 A2993 RMK AO2 SLP117 T02560172
KBMQ 240053Z AUTO 24003KT 10SM CLR 27/18 A2991 RMK AO2 SLP110 T02720178